createdAt,value
2022-11-25T00:00:29.255Z,8.30
2022-11-25T00:02:55.877Z,8.30
2022-11-25T00:05:22.477Z,8.30
2022-11-25T00:07:49.076Z,8.30
2022-11-25T00:10:15.759Z,8.30
2022-11-25T00:12:42.338Z,8.30
2022-11-25T00:15:09.248Z,8.30
2022-11-25T00:17:35.812Z,8.30
2022-11-25T00:20:05.792Z,8.30
2022-11-25T00:22:32.401Z,8.20
2022-11-25T00:24:59.150Z,8.20
2022-11-25T00:27:25.767Z,8.30
2022-11-25T00:29:52.412Z,8.30
2022-11-25T00:32:19.334Z,8.30
2022-11-25T00:34:45.964Z,8.40
2022-11-25T00:37:12.554Z,8.50
2022-11-25T00:39:39.105Z,8.50
2022-11-25T00:42:24.128Z,8.50
2022-11-25T00:44:50.675Z,8.50
2022-11-25T00:47:21.634Z,8.50
2022-11-25T00:49:50.204Z,8.40
2022-11-25T00:52:19.716Z,8.60
2022-11-25T00:54:49.982Z,8.50
2022-11-25T00:57:18.555Z,8.50
2022-11-25T00:59:45.299Z,8.60
2022-11-25T01:02:13.416Z,8.50
2022-11-25T01:04:40.249Z,8.60
2022-11-25T01:07:07.182Z,8.50
2022-11-25T01:09:33.885Z,8.50
2022-11-25T01:12:00.685Z,8.50
2022-11-25T01:14:37.066Z,8.40
2022-11-25T01:17:03.972Z,8.40
2022-11-25T01:19:30.543Z,8.40
2022-11-25T01:21:57.082Z,8.40
2022-11-25T01:24:24.249Z,8.50
2022-11-25T01:26:50.938Z,8.60
2022-11-25T01:29:18.893Z,8.50
2022-11-25T01:31:46.761Z,8.50
2022-11-25T01:34:22.902Z,8.60
2022-11-25T01:36:49.814Z,8.50
2022-11-25T01:39:18.964Z,8.60
2022-11-25T01:41:46.389Z,8.60
2022-11-25T01:44:21.769Z,8.70
2022-11-25T01:47:02.290Z,8.70
2022-11-25T01:49:49.473Z,8.60
2022-11-25T01:52:27.646Z,8.70
2022-11-25T01:54:59.954Z,8.70
2022-11-25T01:57:43.514Z,8.70
2022-11-25T02:00:10.721Z,8.80
2022-11-25T02:02:37.551Z,8.80
2022-11-25T02:05:09.445Z,8.90
2022-11-25T02:07:39.220Z,8.80
2022-11-25T02:10:13.737Z,9.00
2022-11-25T02:12:42.564Z,9.10
2022-11-25T02:15:09.641Z,9.00
2022-11-25T02:17:36.804Z,8.90
2022-11-25T02:20:12.823Z,8.80
2022-11-25T02:22:54.412Z,8.90
2022-11-25T02:25:24.439Z,8.90
2022-11-25T02:28:19.134Z,8.90
2022-11-25T02:30:46.257Z,8.90
2022-11-25T02:33:14.014Z,9.00
2022-11-25T02:35:50.611Z,8.90
2022-11-25T02:38:23.559Z,9.00
2022-11-25T02:40:56.386Z,9.00
2022-11-25T02:43:23.223Z,9.00
2022-11-25T02:45:58.184Z,9.00
2022-11-25T02:48:45.703Z,9.10
2022-11-25T02:51:16.759Z,9.10
2022-11-25T02:53:43.463Z,9.10
2022-11-25T02:56:11.636Z,9.10
2022-11-25T02:58:38.749Z,9.10
2022-11-25T03:01:05.593Z,9.10
2022-11-25T03:03:32.452Z,9.10
2022-11-25T03:05:59.068Z,9.20
2022-11-25T03:08:25.636Z,9.20
2022-11-25T03:10:52.201Z,9.20
2022-11-25T03:13:18.834Z,9.20
2022-11-25T03:15:45.448Z,9.20
2022-11-25T03:18:12.214Z,9.30
2022-11-25T03:20:38.797Z,9.30
2022-11-25T03:23:05.930Z,9.20
2022-11-25T03:25:33.094Z,9.20
2022-11-25T03:27:59.693Z,9.20
2022-11-25T03:30:28.233Z,9.20
2022-11-25T03:32:54.923Z,9.20
2022-11-25T03:35:21.548Z,9.20
2022-11-25T03:37:48.101Z,9.20
2022-11-25T03:40:16.028Z,9.20
2022-11-25T03:42:43.174Z,9.20
2022-11-25T03:45:13.027Z,9.20
2022-11-25T03:47:40.351Z,9.20
2022-11-25T03:50:07.992Z,9.20
2022-11-25T03:52:34.747Z,9.20
2022-11-25T03:55:01.477Z,9.20
2022-11-25T03:57:28.122Z,9.20
2022-11-25T03:59:54.662Z,9.20
2022-11-25T04:02:21.271Z,9.30
2022-11-25T04:04:47.892Z,9.30
2022-11-25T04:07:14.524Z,9.30
2022-11-25T04:09:41.086Z,9.30
2022-11-25T04:12:26.604Z,9.30
2022-11-25T04:14:53.185Z,9.40
2022-11-25T04:17:19.746Z,9.30
2022-11-25T04:19:46.287Z,9.30
2022-11-25T04:22:12.859Z,9.30
2022-11-25T04:24:39.479Z,9.30
2022-11-25T04:27:06.155Z,9.30
2022-11-25T04:29:32.865Z,9.30
2022-11-25T04:31:59.420Z,9.30
2022-11-25T04:34:25.976Z,9.30
2022-11-25T04:36:52.623Z,9.30
2022-11-25T04:39:19.258Z,9.30
2022-11-25T04:41:45.859Z,9.30
2022-11-25T04:44:12.431Z,9.30
2022-11-25T04:46:42.435Z,9.30
2022-11-25T04:49:10.683Z,9.20
2022-11-25T04:51:37.292Z,9.20
2022-11-25T04:54:03.945Z,9.20
2022-11-25T04:56:30.552Z,9.20
2022-11-25T04:59:15.645Z,9.20
2022-11-25T05:01:42.353Z,9.10
2022-11-25T05:04:08.961Z,9.20
2022-11-25T05:06:35.540Z,9.20
2022-11-25T05:09:02.171Z,9.10
2022-11-25T05:11:28.772Z,9.10
2022-11-25T05:13:55.381Z,9.10
2022-11-25T05:16:22.001Z,9.10
2022-11-25T05:18:48.583Z,9.20
2022-11-25T05:21:15.148Z,9.10
2022-11-25T05:23:41.734Z,9.10
2022-11-25T05:26:08.456Z,9.10
2022-11-25T05:28:35.003Z,9.10
2022-11-25T05:31:01.655Z,9.10
2022-11-25T05:33:28.306Z,9.10
2022-11-25T05:35:57.290Z,9.10
2022-11-25T05:38:24.347Z,9.20
2022-11-25T05:40:50.955Z,9.10
2022-11-25T05:43:17.835Z,9.20
2022-11-25T05:45:44.658Z,9.20
2022-11-25T05:48:11.433Z,9.20
2022-11-25T05:50:38.674Z,9.20
2022-11-25T05:53:05.406Z,9.20
2022-11-25T05:55:32.138Z,9.20
2022-11-25T06:00:58.103Z,9.20
2022-11-25T06:03:26.106Z,9.30
2022-11-25T06:05:52.764Z,9.30
2022-11-25T06:08:19.375Z,9.30
2022-11-25T06:10:46.096Z,9.30
2022-11-25T06:13:12.678Z,9.30
2022-11-25T06:15:43.520Z,9.30
2022-11-25T06:18:11.403Z,9.30
2022-11-25T06:20:38.920Z,9.30
2022-11-25T06:23:05.896Z,9.30
2022-11-25T06:25:32.501Z,9.30
2022-11-25T06:28:15.246Z,9.20
2022-11-25T06:30:41.955Z,9.20
2022-11-25T06:33:08.623Z,9.20
2022-11-25T06:35:35.840Z,9.20
2022-11-25T06:38:02.764Z,9.10
2022-11-25T06:40:29.412Z,9.20
2022-11-25T06:42:55.973Z,9.10
2022-11-25T06:45:22.587Z,9.10
2022-11-25T06:47:49.154Z,9.10
2022-11-25T06:50:15.796Z,9.10
2022-11-25T06:52:42.379Z,9.00
2022-11-25T06:55:09.346Z,9.10
2022-11-25T06:57:35.895Z,9.00
2022-11-25T07:00:03.414Z,9.00
2022-11-25T07:02:34.453Z,9.00
2022-11-25T07:05:04.987Z,9.00
2022-11-25T07:07:31.616Z,9.00
2022-11-25T07:09:58.224Z,8.80
2022-11-25T07:12:24.887Z,8.90
2022-11-25T07:14:51.721Z,8.80
2022-11-25T07:17:18.309Z,8.90
2022-11-25T07:19:45.484Z,8.90
2022-11-25T07:22:12.062Z,8.80
2022-11-25T07:24:38.723Z,8.80
2022-11-25T07:27:06.758Z,8.80
2022-11-25T07:30:10.243Z,8.80
2022-11-25T07:32:22.624Z,8.80
2022-11-25T07:34:51.566Z,8.80
2022-11-25T07:37:18.211Z,8.80
2022-11-25T07:39:44.900Z,8.80
2022-11-25T07:42:11.457Z,8.80
2022-11-25T07:44:38.005Z,8.80
2022-11-25T07:47:04.626Z,8.80
2022-11-25T07:49:31.453Z,8.80
2022-11-25T07:52:04.320Z,8.80
2022-11-25T07:54:31.145Z,8.80
2022-11-25T07:56:57.761Z,8.80
2022-11-25T07:59:25.031Z,8.70
2022-11-25T08:01:55.691Z,8.70
2022-11-25T08:04:22.854Z,8.70
2022-11-25T08:06:51.676Z,8.70
2022-11-25T08:09:21.600Z,8.80
2022-11-25T08:11:49.034Z,8.80
2022-11-25T08:14:16.371Z,8.70
2022-11-25T08:16:43.240Z,8.80
2022-11-25T08:19:13.676Z,8.80
2022-11-25T08:21:40.521Z,8.70
2022-11-25T08:24:07.193Z,8.70
2022-11-25T08:26:37.415Z,8.80
2022-11-25T08:29:06.239Z,8.80
2022-11-25T08:31:38.092Z,8.80
2022-11-25T08:34:06.534Z,8.80
2022-11-25T08:36:34.799Z,8.90
2022-11-25T08:39:12.667Z,8.80
2022-11-25T08:41:49.419Z,8.90
2022-11-25T08:44:16.093Z,8.90
2022-11-25T08:46:42.778Z,9.00
2022-11-25T08:49:09.759Z,8.90
2022-11-25T08:51:38.729Z,8.90
2022-11-25T08:54:07.818Z,9.00
2022-11-25T08:56:34.811Z,9.00
2022-11-25T08:59:01.432Z,9.10
2022-11-25T09:01:28.319Z,9.20
2022-11-25T09:03:56.875Z,9.30
2022-11-25T09:06:26.085Z,9.40
2022-11-25T09:08:58.572Z,9.40
2022-11-25T09:11:25.904Z,9.50
2022-11-25T09:13:52.802Z,9.50
2022-11-25T09:16:20.720Z,9.50
2022-11-25T09:18:52.417Z,9.50
2022-11-25T09:21:24.620Z,9.50
2022-11-25T09:23:52.189Z,9.50
2022-11-25T09:26:26.043Z,9.50
2022-11-25T09:28:52.973Z,9.50
2022-11-25T09:31:20.798Z,9.50
2022-11-25T09:33:47.864Z,9.60
2022-11-25T09:36:17.051Z,9.60
2022-11-25T09:38:46.378Z,9.50
2022-11-25T09:41:44.516Z,9.60
2022-11-25T09:45:00.523Z,9.60
2022-11-25T09:47:57.904Z,9.60
2022-11-25T09:50:45.854Z,9.70
2022-11-25T09:53:31.215Z,9.70
2022-11-25T09:56:03.799Z,9.70
2022-11-25T09:58:35.376Z,9.70
2022-11-25T10:01:14.389Z,9.80
2022-11-25T10:03:56.930Z,9.80
2022-11-25T10:06:29.830Z,9.90
2022-11-25T10:09:04.402Z,9.90
2022-11-25T10:11:46.687Z,10.00
2022-11-25T10:14:42.645Z,9.90
2022-11-25T10:17:24.168Z,10.00
2022-11-25T10:19:55.135Z,10.00
2022-11-25T10:22:33.877Z,10.00
2022-11-25T10:25:23.050Z,10.00
2022-11-25T10:28:14.477Z,10.10
2022-11-25T10:30:48.802Z,10.20
2022-11-25T10:33:20.981Z,10.20
2022-11-25T10:36:14.403Z,10.10
2022-11-25T10:39:01.595Z,10.20
2022-11-25T10:41:36.972Z,10.20
2022-11-25T10:44:04.850Z,10.30
2022-11-25T10:47:13.559Z,10.30
2022-11-25T10:50:02.905Z,10.30
2022-11-25T10:52:35.178Z,10.40
2022-11-25T10:55:12.269Z,10.40
2022-11-25T10:57:38.992Z,10.40
2022-11-25T11:00:08.780Z,10.50
2022-11-25T11:02:39.882Z,10.50
2022-11-25T11:05:09.535Z,10.40
2022-11-25T11:07:39.794Z,10.50
2022-11-25T11:10:12.495Z,10.50
2022-11-25T11:12:57.896Z,10.50
2022-11-25T11:15:29.508Z,10.50
2022-11-25T11:17:58.640Z,10.50
2022-11-25T11:20:28.877Z,10.50
2022-11-25T11:23:09.662Z,10.50
2022-11-25T11:25:39.011Z,10.60
2022-11-25T11:28:37.994Z,10.70
2022-11-25T11:31:22.996Z,10.70
2022-11-25T11:33:58.204Z,10.70
2022-11-25T11:36:32.873Z,10.70
2022-11-25T11:39:18.293Z,10.70
2022-11-25T11:41:47.751Z,10.70
2022-11-25T11:44:29.159Z,10.80
2022-11-25T11:46:55.737Z,10.80
2022-11-25T11:49:30.766Z,10.90
2022-11-25T11:52:16.390Z,10.90
2022-11-25T11:54:50.871Z,11.00
2022-11-25T11:57:31.095Z,11.10
2022-11-25T12:00:05.668Z,11.10
2022-11-25T12:02:55.769Z,11.10
2022-11-25T12:05:27.301Z,11.10
2022-11-25T12:08:02.789Z,11.00
2022-11-25T12:10:37.818Z,11.00
2022-11-25T12:13:07.238Z,10.90
2022-11-25T12:15:49.135Z,10.90
2022-11-25T12:18:19.938Z,10.90
2022-11-25T12:21:14.678Z,10.90
2022-11-25T12:23:52.288Z,11.00
2022-11-25T12:26:26.924Z,11.10
2022-11-25T12:29:05.051Z,11.10
2022-11-25T12:31:39.268Z,11.20
2022-11-25T12:34:33.886Z,11.20
2022-11-25T12:37:21.366Z,11.40
2022-11-25T12:40:20.216Z,11.40
2022-11-25T12:42:48.781Z,11.40
2022-11-25T12:45:25.672Z,11.60
2022-11-25T12:47:53.227Z,11.60
2022-11-25T12:50:40.110Z,11.50
2022-11-25T12:53:44.663Z,11.50
2022-11-25T12:56:20.901Z,11.60
2022-11-25T12:59:10.292Z,11.60
2022-11-25T13:02:09.132Z,11.60
2022-11-25T13:07:56.932Z,11.70
2022-11-25T13:10:29.386Z,11.70
2022-11-25T13:10:55.633Z,11.60
2022-11-25T13:13:22.664Z,11.80
2022-11-25T13:15:52.631Z,11.90
2022-11-25T13:18:23.235Z,11.90
2022-11-25T13:20:52.466Z,11.90
2022-11-25T13:23:18.991Z,12.00
2022-11-25T13:25:48.096Z,12.00
2022-11-25T13:28:37.510Z,12.10
2022-11-25T13:31:13.456Z,12.00
2022-11-25T13:33:42.813Z,12.10
2022-11-25T13:36:23.910Z,12.10
2022-11-25T13:38:50.466Z,12.20
2022-11-25T13:41:19.998Z,12.20
2022-11-25T13:43:52.549Z,12.30
2022-11-25T13:46:39.702Z,12.40
2022-11-25T13:49:21.914Z,12.20
2022-11-25T13:51:57.043Z,12.30
2022-11-25T13:54:35.622Z,12.20
2022-11-25T13:57:34.529Z,12.10
2022-11-25T14:00:22.508Z,12.00
2022-11-25T14:02:49.671Z,11.90
2022-11-25T14:05:45.535Z,11.80
2022-11-25T14:08:17.964Z,11.90
2022-11-25T14:10:50.508Z,11.90
2022-11-25T14:13:54.747Z,11.90
2022-11-25T14:16:54.801Z,12.00
2022-11-25T14:19:51.714Z,12.10
2022-11-25T14:22:55.780Z,12.20
2022-11-25T14:25:26.728Z,12.20
2022-11-25T14:28:07.591Z,12.30
2022-11-25T14:30:35.751Z,12.20
2022-11-25T14:33:08.137Z,12.20
2022-11-25T14:35:43.535Z,12.20
2022-11-25T14:38:25.267Z,12.10
2022-11-25T14:41:00.350Z,12.00
2022-11-25T14:43:28.828Z,11.90
2022-11-25T14:46:15.202Z,11.70
2022-11-25T14:48:43.225Z,11.70
2022-11-25T14:51:13.736Z,11.60
2022-11-25T14:53:48.465Z,11.50
2022-11-25T14:56:22.207Z,11.40
2022-11-25T14:58:50.885Z,11.40
2022-11-25T15:01:29.478Z,11.30
2022-11-25T15:04:07.310Z,11.30
2022-11-25T15:06:36.573Z,11.20
2022-11-25T15:09:04.542Z,11.20
2022-11-25T15:11:34.582Z,11.10
2022-11-25T15:14:03.908Z,11.10
2022-11-25T15:16:41.418Z,11.00
2022-11-25T15:19:17.892Z,11.00
2022-11-25T15:22:15.009Z,10.90
2022-11-25T15:24:40.696Z,10.90
2022-11-25T15:27:15.526Z,10.90
2022-11-25T15:29:43.490Z,10.90
2022-11-25T15:32:29.674Z,10.90
2022-11-25T15:34:58.591Z,10.90
2022-11-25T15:37:25.401Z,10.90
2022-11-25T15:40:36.985Z,10.90
2022-11-25T15:43:06.787Z,10.90
2022-11-25T15:45:48.821Z,10.90
2022-11-25T15:48:26.227Z,10.90
2022-11-25T15:51:02.415Z,10.90
2022-11-25T15:53:33.607Z,10.90
2022-11-25T15:56:01.795Z,10.90
2022-11-25T15:58:28.470Z,10.90
2022-11-25T16:01:05.672Z,10.90
2022-11-25T16:03:33.748Z,10.80
2022-11-25T16:06:01.431Z,10.80
2022-11-25T16:08:35.271Z,10.80
2022-11-25T16:11:11.209Z,10.80
2022-11-25T16:13:39.600Z,10.80
2022-11-25T16:16:28.067Z,10.80
2022-11-25T16:19:10.114Z,10.80
2022-11-25T16:21:36.695Z,10.80
2022-11-25T16:24:06.315Z,10.80
2022-11-25T16:26:54.863Z,10.80
2022-11-25T16:29:27.717Z,10.70
2022-11-25T16:31:54.317Z,10.70
2022-11-25T16:34:24.071Z,10.70
2022-11-25T16:36:51.875Z,10.60
2022-11-25T16:39:18.618Z,10.60
2022-11-25T16:41:54.413Z,10.60
2022-11-25T16:44:23.605Z,10.60
2022-11-25T16:46:51.059Z,10.50
2022-11-25T16:49:20.012Z,10.50
2022-11-25T16:51:46.824Z,10.40
2022-11-25T16:54:13.445Z,10.40
2022-11-25T16:56:42.601Z,10.40
2022-11-25T16:59:20.372Z,10.30
2022-11-25T17:01:47.329Z,10.30
2022-11-25T17:04:15.247Z,10.30
2022-11-25T17:06:50.530Z,10.20
2022-11-25T17:09:32.185Z,10.20
2022-11-25T17:11:58.796Z,10.20
2022-11-25T17:14:31.007Z,10.20
2022-11-25T17:16:59.501Z,10.10
2022-11-25T17:19:26.193Z,10.10
2022-11-25T17:21:52.789Z,10.00
2022-11-25T17:24:21.971Z,10.00
2022-11-25T17:26:59.033Z,10.00
2022-11-25T17:29:35.054Z,9.90
2022-11-25T17:32:02.352Z,9.90
2022-11-25T17:34:28.960Z,9.90
2022-11-25T17:36:56.441Z,9.80
2022-11-25T17:39:23.030Z,9.90
2022-11-25T17:41:51.457Z,9.90
2022-11-25T17:44:24.661Z,10.00
2022-11-25T17:46:51.699Z,10.00
2022-11-25T17:49:18.353Z,10.00
2022-11-25T17:51:44.982Z,9.90
2022-11-25T17:54:12.582Z,9.90
2022-11-25T17:56:41.171Z,9.90
2022-11-25T17:59:29.847Z,9.90
2022-11-25T18:01:58.980Z,9.80
2022-11-25T18:04:35.408Z,9.80
2022-11-25T18:07:02.273Z,9.80
2022-11-25T18:09:28.907Z,9.80
2022-11-25T18:11:58.942Z,9.80
2022-11-25T18:14:28.397Z,9.70
2022-11-25T18:16:56.059Z,9.70
2022-11-25T18:19:22.725Z,9.70
2022-11-25T18:21:49.298Z,9.70
2022-11-25T18:24:15.842Z,9.70
2022-11-25T18:26:49.291Z,9.70
2022-11-25T18:29:26.206Z,9.70
2022-11-25T18:31:59.382Z,9.70
2022-11-25T18:34:26.709Z,9.70
2022-11-25T18:36:53.586Z,9.70
2022-11-25T18:39:20.553Z,9.70
2022-11-25T18:41:47.835Z,9.70
2022-11-25T18:44:26.621Z,9.80
2022-11-25T18:46:53.845Z,9.80
2022-11-25T18:49:21.115Z,9.70
2022-11-25T18:51:47.818Z,9.70
2022-11-25T18:54:14.568Z,9.60
2022-11-25T18:56:41.864Z,9.60
2022-11-25T18:59:15.071Z,9.60
2022-11-25T19:01:45.369Z,9.50
2022-11-25T19:04:16.339Z,9.50
2022-11-25T19:06:43.791Z,9.50
2022-11-25T19:09:11.010Z,9.50
2022-11-25T19:11:41.753Z,9.40
2022-11-25T19:14:16.863Z,9.40
2022-11-25T19:16:44.130Z,9.40
2022-11-25T19:19:16.833Z,9.40
2022-11-25T19:21:43.560Z,9.30
2022-11-25T19:24:13.490Z,9.30
2022-11-25T19:26:45.234Z,9.30
2022-11-25T19:29:18.962Z,9.20
2022-11-25T19:31:46.345Z,9.20
2022-11-25T19:34:25.876Z,9.10
2022-11-25T19:36:52.609Z,9.10
2022-11-25T19:39:19.165Z,9.10
2022-11-25T19:41:45.743Z,9.10
2022-11-25T19:44:12.418Z,9.10
2022-11-25T19:47:13.281Z,9.00
2022-11-25T19:49:30.097Z,9.00
2022-11-25T19:51:56.672Z,9.00
2022-11-25T19:54:23.211Z,9.00
2022-11-25T19:56:49.928Z,9.00
2022-11-25T19:59:16.536Z,8.90
2022-11-25T20:01:45.194Z,8.90
2022-11-25T20:04:22.005Z,8.90
2022-11-25T20:06:49.576Z,8.90
2022-11-25T20:09:16.191Z,8.70
2022-11-25T20:11:43.176Z,8.70
2022-11-25T20:14:09.751Z,8.70
2022-11-25T20:16:39.935Z,8.70
2022-11-25T20:19:14.027Z,8.70
2022-11-25T20:21:41.054Z,8.70
2022-11-25T20:24:17.601Z,8.70
2022-11-25T20:26:48.364Z,8.70
2022-11-25T20:29:17.950Z,8.60
2022-11-25T20:31:44.748Z,8.70
2022-11-25T20:34:11.335Z,8.60
2022-11-25T20:36:41.036Z,8.60
2022-11-25T20:39:12.426Z,8.60
2022-11-25T20:41:38.986Z,8.60
2022-11-25T20:44:05.564Z,8.60
2022-11-25T20:46:32.221Z,8.50
2022-11-25T20:49:01.750Z,8.50
2022-11-25T20:51:29.151Z,8.50
2022-11-25T20:54:00.778Z,8.50
2022-11-25T20:56:27.662Z,8.50
2022-11-25T20:58:54.365Z,8.40
2022-11-25T21:01:21.219Z,8.40
2022-11-25T21:03:49.791Z,8.40
2022-11-25T21:06:30.408Z,8.40
2022-11-25T21:08:58.782Z,8.30
2022-11-25T21:11:27.789Z,8.40
2022-11-25T21:13:54.803Z,8.40
2022-11-25T21:16:21.471Z,8.30
2022-11-25T21:18:48.128Z,8.40
2022-11-25T21:21:19.359Z,8.30
2022-11-25T21:23:47.622Z,8.20
2022-11-25T21:26:21.410Z,8.10
2022-11-25T21:28:50.941Z,8.20
2022-11-25T21:31:21.571Z,8.20
2022-11-25T21:33:48.861Z,8.20
2022-11-25T21:36:28.513Z,8.10
2022-11-25T21:39:03.978Z,8.10
2022-11-25T21:41:30.556Z,8.10
2022-11-25T21:43:57.384Z,8.10
2022-11-25T21:46:28.781Z,8.00
2022-11-25T21:48:55.485Z,8.00
2022-11-25T21:51:24.021Z,8.00
2022-11-25T21:53:54.306Z,8.00
2022-11-25T21:56:28.091Z,7.90
2022-11-25T21:58:55.570Z,7.90
2022-11-25T22:01:23.304Z,7.90
2022-11-25T22:03:50.032Z,7.80
2022-11-25T22:06:25.282Z,7.80
2022-11-25T22:08:52.143Z,7.80
2022-11-25T22:11:21.916Z,7.80
2022-11-25T22:13:49.034Z,7.80
2022-11-25T22:16:18.682Z,7.80
2022-11-25T22:18:45.443Z,7.70
2022-11-25T22:21:13.810Z,7.80
2022-11-25T22:23:41.591Z,7.70
2022-11-25T22:26:20.425Z,7.70
2022-11-25T22:28:51.560Z,7.60
2022-11-25T22:31:20.000Z,7.60
2022-11-25T22:33:46.986Z,7.60
2022-11-25T22:36:37.211Z,7.60
2022-11-25T22:39:13.149Z,7.60
2022-11-25T22:41:40.417Z,7.60
2022-11-25T22:44:13.029Z,7.60
2022-11-25T22:46:39.598Z,7.50
2022-11-25T22:49:23.683Z,7.40
2022-11-25T22:51:50.318Z,7.40
2022-11-25T22:54:16.857Z,7.50
2022-11-25T22:56:43.395Z,7.40
2022-11-25T22:59:10.286Z,7.40
2022-11-25T23:01:36.883Z,7.30
2022-11-25T23:04:03.915Z,7.40
2022-11-25T23:06:31.023Z,7.40
2022-11-25T23:08:57.562Z,7.40
2022-11-25T23:11:24.156Z,7.40
2022-11-25T23:13:50.701Z,7.30
2022-11-25T23:16:17.470Z,7.30
2022-11-25T23:18:47.297Z,7.40
2022-11-25T23:21:19.996Z,7.40
2022-11-25T23:23:46.584Z,7.40
2022-11-25T23:26:13.853Z,7.30
2022-11-25T23:28:40.431Z,7.30
2022-11-25T23:31:10.154Z,7.30
2022-11-25T23:33:38.256Z,7.20
2022-11-25T23:36:13.971Z,7.20
2022-11-25T23:38:53.572Z,7.20
2022-11-25T23:41:25.903Z,7.10
2022-11-25T23:43:52.746Z,7.20
2022-11-25T23:46:25.320Z,7.10
2022-11-25T23:49:01.807Z,7.10
2022-11-25T23:51:29.186Z,7.10
2022-11-25T23:53:57.368Z,7.10
2022-11-25T23:56:26.763Z,7.10
2022-11-25T23:58:53.323Z,7.00
